sensor_id;sensor_type;location;lat;lon;timestamp;pressure;altitude;pressure_sealevel;temperature;humidity
12775;BME280;6451;42.630;23.382;2023-04-24T00:00:06;94115.31;;;16.55;57.51
12775;BME280;6451;42.630;23.382;2023-04-24T00:02:37;94143.97;;;17.29;56.06
12775;BME280;6451;42.630;23.382;2023-04-24T00:05:04;94089.13;;;17.22;55.44
12775;BME280;6451;42.630;23.382;2023-04-24T00:07:32;94129.84;;;17.31;56.57
12775;BME280;6451;42.630;23.382;2023-04-24T00:10:00;94098.53;;;17.00;57.59
12775;BME280;6451;42.630;23.382;2023-04-24T00:12:27;94086.38;;;17.15;57.04
12775;BME280;6451;42.630;23.382;2023-04-24T00:14:56;94058.63;;;16.95;57.09
12775;BME280;6451;42.630;23.382;2023-04-24T00:17:23;94082.88;;;17.18;56.62
12775;BME280;6451;42.630;23.382;2023-04-24T00:19:50;94101.66;;;17.19;57.41
12775;BME280;6451;42.630;23.382;2023-04-24T00:22:23;94086.00;;;17.02;57.64
12775;BME280;6451;42.630;23.382;2023-04-24T00:24:51;94100.50;;;17.03;57.68
12775;BME280;6451;42.630;23.382;2023-04-24T00:27:18;94100.88;;;17.15;58.05
12775;BME280;6451;42.630;23.382;2023-04-24T00:29:45;94104.78;;;17.14;58.26
12775;BME280;6451;42.630;23.382;2023-04-24T00:32:14;94097.38;;;16.79;58.50
12775;BME280;6451;42.630;23.382;2023-04-24T00:34:42;94066.75;;;16.13;59.12
12775;BME280;6451;42.630;23.382;2023-04-24T00:37:09;94067.59;;;16.46;58.45
12775;BME280;6451;42.630;23.382;2023-04-24T00:39:37;94090.06;;;15.71;61.39
12775;BME280;6451;42.630;23.382;2023-04-24T00:42:04;94098.69;;;15.08;63.14
12775;BME280;6451;42.630;23.382;2023-04-24T00:44:32;94111.22;;;15.12;63.06
12775;BME280;6451;42.630;23.382;2023-04-24T00:47:00;94097.75;;;15.44;62.15
12775;BME280;6451;42.630;23.382;2023-04-24T00:49:29;94092.50;;;15.94;61.15
12775;BME280;6451;42.630;23.382;2023-04-24T00:51:56;94103.09;;;15.96;60.56
12775;BME280;6451;42.630;23.382;2023-04-24T00:54:25;93959.69;;;15.02;61.31
12775;BME280;6451;42.630;23.382;2023-04-24T00:56:52;94070.66;;;16.16;60.86
12775;BME280;6451;42.630;23.382;2023-04-24T00:59:19;94081.66;;;16.37;60.56
12775;BME280;6451;42.630;23.382;2023-04-24T01:01:46;94086.38;;;16.51;60.65
12775;BME280;6451;42.630;23.382;2023-04-24T01:04:14;94101.22;;;16.46;61.26
12775;BME280;6451;42.630;23.382;2023-04-24T01:06:43;94114.19;;;16.78;60.60
12775;BME280;6451;42.630;23.382;2023-04-24T01:09:12;94105.06;;;16.06;62.13
12775;BME280;6451;42.630;23.382;2023-04-24T01:11:41;94083.94;;;16.06;62.70
12775;BME280;6451;42.630;23.382;2023-04-24T01:14:09;94113.72;;;16.26;62.98
12775;BME280;6451;42.630;23.382;2023-04-24T01:16:36;94086.34;;;16.26;62.51
12775;BME280;6451;42.630;23.382;2023-04-24T01:19:04;94082.38;;;16.09;62.89
12775;BME280;6451;42.630;23.382;2023-04-24T01:21:34;93845.88;;;14.48;63.84
12775;BME280;6451;42.630;23.382;2023-04-24T01:24:05;94040.50;;;15.91;64.38
12775;BME280;6451;42.630;23.382;2023-04-24T01:26:32;94074.22;;;16.20;64.41
12775;BME280;6451;42.630;23.382;2023-04-24T01:29:00;94095.78;;;16.60;65.13
12775;BME280;6451;42.630;23.382;2023-04-24T01:31:27;94071.88;;;16.39;66.12
12775;BME280;6451;42.630;23.382;2023-04-24T01:33:58;94079.31;;;16.35;67.39
12775;BME280;6451;42.630;23.382;2023-04-24T01:36:27;94075.44;;;16.65;66.41
12775;BME280;6451;42.630;23.382;2023-04-24T01:38:55;94071.06;;;16.14;68.34
12775;BME280;6451;42.630;23.382;2023-04-24T01:41:25;94079.25;;;16.03;69.52
12775;BME280;6451;42.630;23.382;2023-04-24T01:43:52;94074.59;;;16.32;69.55
12775;BME280;6451;42.630;23.382;2023-04-24T01:46:20;94068.66;;;15.88;69.33
12775;BME280;6451;42.630;23.382;2023-04-24T01:48:47;94067.44;;;15.74;70.68
12775;BME280;6451;42.630;23.382;2023-04-24T01:51:14;94003.56;;;15.38;71.45
12775;BME280;6451;42.630;23.382;2023-04-24T01:53:41;94040.06;;;15.67;71.12
12775;BME280;6451;42.630;23.382;2023-04-24T01:56:08;94063.50;;;15.65;70.97
12775;BME280;6451;42.630;23.382;2023-04-24T01:58:38;94043.50;;;15.57;71.35
12775;BME280;6451;42.630;23.382;2023-04-24T02:01:06;94035.47;;;15.13;72.74
12775;BME280;6451;42.630;23.382;2023-04-24T02:03:33;94048.31;;;15.05;75.04
12775;BME280;6451;42.630;23.382;2023-04-24T02:06:00;94052.19;;;14.97;75.17
12775;BME280;6451;42.630;23.382;2023-04-24T02:08:27;94047.25;;;15.20;74.53
12775;BME280;6451;42.630;23.382;2023-04-24T02:10:54;94006.94;;;15.07;74.64
12775;BME280;6451;42.630;23.382;2023-04-24T02:13:21;93959.75;;;15.17;72.55
12775;BME280;6451;42.630;23.382;2023-04-24T02:15:50;94018.16;;;15.67;72.22
12775;BME280;6451;42.630;23.382;2023-04-24T02:18:17;94045.94;;;15.73;73.00
12775;BME280;6451;42.630;23.382;2023-04-24T02:20:44;94045.91;;;15.66;74.33
12775;BME280;6451;42.630;23.382;2023-04-24T02:23:11;93930.56;;;14.52;76.17
12775;BME280;6451;42.630;23.382;2023-04-24T02:25:40;94008.31;;;14.76;78.33
12775;BME280;6451;42.630;23.382;2023-04-24T02:28:07;94044.88;;;15.19;77.88
12775;BME280;6451;42.630;23.382;2023-04-24T02:30:34;94029.97;;;15.09;76.92
12775;BME280;6451;42.630;23.382;2023-04-24T02:33:02;94022.94;;;15.05;75.56
12775;BME280;6451;42.630;23.382;2023-04-24T02:35:30;94043.22;;;15.00;76.85
12775;BME280;6451;42.630;23.382;2023-04-24T02:37:57;94040.56;;;15.18;75.82
12775;BME280;6451;42.630;23.382;2023-04-24T02:40:24;94045.59;;;15.05;76.51
12775;BME280;6451;42.630;23.382;2023-04-24T02:42:51;93964.97;;;14.70;76.85
12775;BME280;6451;42.630;23.382;2023-04-24T02:45:17;94014.75;;;15.05;76.15
12775;BME280;6451;42.630;23.382;2023-04-24T02:47:47;94018.81;;;15.36;76.58
12775;BME280;6451;42.630;23.382;2023-04-24T02:50:16;94033.03;;;15.77;74.78
12775;BME280;6451;42.630;23.382;2023-04-24T02:52:43;93904.25;;;14.98;73.63
12775;BME280;6451;42.630;23.382;2023-04-24T02:55:10;94005.47;;;15.20;75.23
12775;BME280;6451;42.630;23.382;2023-04-24T02:57:37;93975.41;;;15.20;75.52
12775;BME280;6451;42.630;23.382;2023-04-24T03:00:06;94021.94;;;15.38;75.91
12775;BME280;6451;42.630;23.382;2023-04-24T03:02:37;93943.25;;;14.88;75.88
12775;BME280;6451;42.630;23.382;2023-04-24T03:05:05;93901.00;;;14.68;75.46
12775;BME280;6451;42.630;23.382;2023-04-24T03:07:34;94047.63;;;15.19;77.28
12775;BME280;6451;42.630;23.382;2023-04-24T03:10:02;94020.63;;;15.10;78.32
12775;BME280;6451;42.630;23.382;2023-04-24T03:12:31;93914.25;;;14.66;77.21
12775;BME280;6451;42.630;23.382;2023-04-24T03:14:58;94041.78;;;15.24;76.90
12775;BME280;6451;42.630;23.382;2023-04-24T03:17:25;94042.50;;;15.14;77.39
12775;BME280;6451;42.630;23.382;2023-04-24T03:19:52;94047.72;;;14.74;79.64
12775;BME280;6451;42.630;23.382;2023-04-24T03:22:19;94044.50;;;15.20;78.00
12775;BME280;6451;42.630;23.382;2023-04-24T03:24:48;93973.84;;;14.50;78.40
12775;BME280;6451;42.630;23.382;2023-04-24T03:27:15;94049.94;;;15.17;78.28
12775;BME280;6451;42.630;23.382;2023-04-24T03:29:42;94042.22;;;15.33;77.80
12775;BME280;6451;42.630;23.382;2023-04-24T03:32:09;94046.06;;;15.21;78.67
12775;BME280;6451;42.630;23.382;2023-04-24T03:34:38;94056.56;;;15.16;79.39
12775;BME280;6451;42.630;23.382;2023-04-24T03:37:06;94010.56;;;15.28;78.58
12775;BME280;6451;42.630;23.382;2023-04-24T03:39:35;94054.69;;;15.30;79.05
12775;BME280;6451;42.630;23.382;2023-04-24T03:42:04;94039.59;;;14.82;81.63
12775;BME280;6451;42.630;23.382;2023-04-24T03:44:31;94001.78;;;14.36;84.92
12775;BME280;6451;42.630;23.382;2023-04-24T03:46:58;94038.97;;;15.10;81.86
12775;BME280;6451;42.630;23.382;2023-04-24T03:49:25;94032.03;;;15.26;80.38
12775;BME280;6451;42.630;23.382;2023-04-24T03:51:52;94045.25;;;15.17;81.37
12775;BME280;6451;42.630;23.382;2023-04-24T03:54:19;94040.63;;;15.32;81.89
12775;BME280;6451;42.630;23.382;2023-04-24T03:56:46;93953.91;;;15.18;80.12
12775;BME280;6451;42.630;23.382;2023-04-24T03:59:15;94023.16;;;15.54;80.61
12775;BME280;6451;42.630;23.382;2023-04-24T04:01:42;94005.59;;;15.59;79.37
12775;BME280;6451;42.630;23.382;2023-04-24T04:04:09;94022.91;;;15.92;78.29
12775;BME280;6451;42.630;23.382;2023-04-24T04:06:36;94020.53;;;15.79;78.22
12775;BME280;6451;42.630;23.382;2023-04-24T04:09:03;94010.38;;;15.83;77.86
12775;BME280;6451;42.630;23.382;2023-04-24T04:11:30;94027.28;;;16.21;76.02
12775;BME280;6451;42.630;23.382;2023-04-24T04:13:58;94053.31;;;15.62;77.27
12775;BME280;6451;42.630;23.382;2023-04-24T04:16:26;94005.56;;;15.45;78.59
12775;BME280;6451;42.630;23.382;2023-04-24T04:18:55;93982.41;;;15.21;78.86
12775;BME280;6451;42.630;23.382;2023-04-24T04:21:22;94006.06;;;15.75;77.43
12775;BME280;6451;42.630;23.382;2023-04-24T04:23:51;94066.75;;;16.24;76.02
12775;BME280;6451;42.630;23.382;2023-04-24T04:26:18;94058.47;;;15.84;78.08
12775;BME280;6451;42.630;23.382;2023-04-24T04:28:46;94037.41;;;16.03;78.16
12775;BME280;6451;42.630;23.382;2023-04-24T04:31:14;94046.44;;;16.10;76.93
12775;BME280;6451;42.630;23.382;2023-04-24T04:33:43;94060.09;;;16.18;75.68
12775;BME280;6451;42.630;23.382;2023-04-24T04:36:10;93917.97;;;15.13;75.11
12775;BME280;6451;42.630;23.382;2023-04-24T04:38:39;94061.72;;;16.36;74.37
12775;BME280;6451;42.630;23.382;2023-04-24T04:41:08;94056.25;;;16.58;72.81
12775;BME280;6451;42.630;23.382;2023-04-24T04:43:35;94057.81;;;16.52;72.97
12775;BME280;6451;42.630;23.382;2023-04-24T04:46:03;94064.47;;;17.01;72.62
12775;BME280;6451;42.630;23.382;2023-04-24T04:48:30;94073.84;;;16.53;72.35
12775;BME280;6451;42.630;23.382;2023-04-24T04:50:59;94071.13;;;16.43;71.53
12775;BME280;6451;42.630;23.382;2023-04-24T04:53:26;94074.28;;;16.87;69.69
12775;BME280;6451;42.630;23.382;2023-04-24T04:55:53;94043.31;;;16.30;69.61
12775;BME280;6451;42.630;23.382;2023-04-24T04:58:20;94083.13;;;15.99;71.42
12775;BME280;6451;42.630;23.382;2023-04-24T05:00:50;94081.88;;;15.75;72.89
12775;BME280;6451;42.630;23.382;2023-04-24T05:03:17;94078.81;;;15.94;73.37
12775;BME280;6451;42.630;23.382;2023-04-24T05:05:44;94053.47;;;16.19;72.28
12775;BME280;6451;42.630;23.382;2023-04-24T05:08:13;94062.44;;;16.08;73.05
12775;BME280;6451;42.630;23.382;2023-04-24T05:10:40;94061.28;;;16.06;73.32
12775;BME280;6451;42.630;23.382;2023-04-24T05:13:08;94033.13;;;16.12;73.16
12775;BME280;6451;42.630;23.382;2023-04-24T05:15:35;94085.97;;;16.38;72.30
12775;BME280;6451;42.630;23.382;2023-04-24T05:18:02;94084.78;;;16.32;72.18
12775;BME280;6451;42.630;23.382;2023-04-24T05:20:29;93965.66;;;15.33;73.70
12775;BME280;6451;42.630;23.382;2023-04-24T05:22:57;94046.31;;;15.78;73.98
12775;BME280;6451;42.630;23.382;2023-04-24T05:25:25;93994.34;;;15.64;72.65
12775;BME280;6451;42.630;23.382;2023-04-24T05:27:52;94078.13;;;16.26;71.94
12775;BME280;6451;42.630;23.382;2023-04-24T05:30:20;94088.25;;;16.15;72.43
12775;BME280;6451;42.630;23.382;2023-04-24T05:32:47;94087.59;;;16.75;71.83
12775;BME280;6451;42.630;23.382;2023-04-24T05:35:14;94000.63;;;15.90;71.07
12775;BME280;6451;42.630;23.382;2023-04-24T05:37:42;94068.41;;;16.89;69.60
12775;BME280;6451;42.630;23.382;2023-04-24T05:40:09;94080.16;;;17.04;68.63
12775;BME280;6451;42.630;23.382;2023-04-24T05:42:39;94081.31;;;16.99;69.20
12775;BME280;6451;42.630;23.382;2023-04-24T05:45:07;94083.22;;;17.31;68.82
12775;BME280;6451;42.630;23.382;2023-04-24T05:47:34;94073.03;;;17.35;68.86
12775;BME280;6451;42.630;23.382;2023-04-24T05:50:02;94084.31;;;17.72;67.10
12775;BME280;6451;42.630;23.382;2023-04-24T05:52:29;94097.69;;;17.49;65.47
12775;BME280;6451;42.630;23.382;2023-04-24T05:54:56;94091.50;;;16.95;66.96
12775;BME280;6451;42.630;23.382;2023-04-24T05:57:23;94091.50;;;16.88;68.04
12775;BME280;6451;42.630;23.382;2023-04-24T05:59:51;94090.31;;;16.85;67.94
12775;BME280;6451;42.630;23.382;2023-04-24T06:02:18;94073.06;;;17.10;67.24
12775;BME280;6451;42.630;23.382;2023-04-24T06:04:45;94074.19;;;17.37;65.71
12775;BME280;6451;42.630;23.382;2023-04-24T06:07:12;94065.13;;;17.58;64.76
12775;BME280;6451;42.630;23.382;2023-04-24T06:09:39;94069.78;;;17.68;64.36
12775;BME280;6451;42.630;23.382;2023-04-24T06:12:06;94082.03;;;17.42;65.49
12775;BME280;6451;42.630;23.382;2023-04-24T06:14:34;94058.16;;;17.36;65.27
12775;BME280;6451;42.630;23.382;2023-04-24T06:17:03;94081.16;;;17.81;63.99
12775;BME280;6451;42.630;23.382;2023-04-24T06:19:31;94049.13;;;18.30;62.41
12775;BME280;6451;42.630;23.382;2023-04-24T06:21:58;94079.69;;;18.95;61.42
12775;BME280;6451;42.630;23.382;2023-04-24T06:24:27;94067.78;;;18.56;60.84
12775;BME280;6451;42.630;23.382;2023-04-24T06:26:54;94081.63;;;18.98;60.69
12775;BME280;6451;42.630;23.382;2023-04-24T06:29:22;94065.00;;;19.08;60.26
12775;BME280;6451;42.630;23.382;2023-04-24T06:31:49;94071.38;;;19.39;59.52
12775;BME280;6451;42.630;23.382;2023-04-24T06:34:17;94076.47;;;19.44;59.48
12775;BME280;6451;42.630;23.382;2023-04-24T06:36:44;94078.94;;;19.73;58.56
12775;BME280;6451;42.630;23.382;2023-04-24T06:39:11;94059.88;;;20.16;57.47
12775;BME280;6451;42.630;23.382;2023-04-24T06:41:38;94037.06;;;19.89;56.17
12775;BME280;6451;42.630;23.382;2023-04-24T06:44:05;94075.31;;;20.41;55.60
12775;BME280;6451;42.630;23.382;2023-04-24T06:46:32;94076.63;;;20.02;55.88
12775;BME280;6451;42.630;23.382;2023-04-24T06:49:00;94083.78;;;20.26;55.60
12775;BME280;6451;42.630;23.382;2023-04-24T06:51:28;94077.44;;;19.99;55.36
12775;BME280;6451;42.630;23.382;2023-04-24T06:53:56;94074.63;;;19.72;55.29
12775;BME280;6451;42.630;23.382;2023-04-24T06:56:22;94085.75;;;19.16;56.22
12775;BME280;6451;42.630;23.382;2023-04-24T06:58:50;94082.50;;;19.29;55.53
12775;BME280;6451;42.630;23.382;2023-04-24T07:01:17;94088.47;;;19.65;55.14
12775;BME280;6451;42.630;23.382;2023-04-24T07:03:44;94083.28;;;19.70;54.98
12775;BME280;6451;42.630;23.382;2023-04-24T07:06:12;94090.50;;;19.54;54.13
12775;BME280;6451;42.630;23.382;2023-04-24T07:08:41;94086.94;;;19.60;54.67
12775;BME280;6451;42.630;23.382;2023-04-24T07:11:09;94077.56;;;19.88;53.41
12775;BME280;6451;42.630;23.382;2023-04-24T07:13:36;94070.91;;;19.86;53.61
12775;BME280;6451;42.630;23.382;2023-04-24T07:16:07;94065.00;;;19.87;52.90
12775;BME280;6451;42.630;23.382;2023-04-24T07:18:34;94048.25;;;19.75;52.87
12775;BME280;6451;42.630;23.382;2023-04-24T07:21:02;94073.59;;;19.59;53.55
12775;BME280;6451;42.630;23.382;2023-04-24T07:23:28;94074.41;;;19.90;53.24
12775;BME280;6451;42.630;23.382;2023-04-24T07:25:57;94063.53;;;20.10;52.60
12775;BME280;6451;42.630;23.382;2023-04-24T07:28:24;94070.78;;;19.96;53.60
12775;BME280;6451;42.630;23.382;2023-04-24T07:30:51;94067.53;;;20.05;53.28
12775;BME280;6451;42.630;23.382;2023-04-24T07:33:20;94069.69;;;20.21;52.57
12775;BME280;6451;42.630;23.382;2023-04-24T07:35:47;94058.03;;;20.37;51.54
12775;BME280;6451;42.630;23.382;2023-04-24T07:38:14;94058.81;;;20.10;51.86
12775;BME280;6451;42.630;23.382;2023-04-24T07:40:41;94051.59;;;19.89;52.39
12775;BME280;6451;42.630;23.382;2023-04-24T07:43:09;94049.91;;;20.57;51.77
12775;BME280;6451;42.630;23.382;2023-04-24T07:45:37;94052.81;;;20.15;53.39
12775;BME280;6451;42.630;23.382;2023-04-24T07:48:05;93990.47;;;20.02;52.75
12775;BME280;6451;42.630;23.382;2023-04-24T07:50:31;94049.19;;;20.22;53.19
12775;BME280;6451;42.630;23.382;2023-04-24T07:52:58;94045.28;;;20.50;53.17
12775;BME280;6451;42.630;23.382;2023-04-24T07:55:25;94044.97;;;20.44;53.61
12775;BME280;6451;42.630;23.382;2023-04-24T07:57:52;94032.97;;;20.81;52.35
12775;BME280;6451;42.630;23.382;2023-04-24T08:00:21;94038.28;;;19.84;53.09
12775;BME280;6451;42.630;23.382;2023-04-24T08:02:47;94045.44;;;20.66;52.71
12775;BME280;6451;42.630;23.382;2023-04-24T08:05:14;94046.19;;;20.94;52.39
12775;BME280;6451;42.630;23.382;2023-04-24T08:07:41;94013.72;;;19.97;53.33
12775;BME280;6451;42.630;23.382;2023-04-24T08:10:10;94035.81;;;20.51;52.27
12775;BME280;6451;42.630;23.382;2023-04-24T08:12:37;94037.94;;;20.67;52.71
12775;BME280;6451;42.630;23.382;2023-04-24T08:15:05;94024.72;;;20.54;52.35
12775;BME280;6451;42.630;23.382;2023-04-24T08:17:34;94032.44;;;21.14;51.72
12775;BME280;6451;42.630;23.382;2023-04-24T08:20:01;94032.31;;;20.74;51.64
12775;BME280;6451;42.630;23.382;2023-04-24T08:22:29;94030.59;;;21.50;50.73
12775;BME280;6451;42.630;23.382;2023-04-24T08:24:56;94018.50;;;21.21;51.11
12775;BME280;6451;42.630;23.382;2023-04-24T08:27:24;94010.53;;;21.26;50.77
12775;BME280;6451;42.630;23.382;2023-04-24T08:29:52;94007.94;;;21.16;50.62
12775;BME280;6451;42.630;23.382;2023-04-24T08:32:19;94025.47;;;21.05;50.83
12775;BME280;6451;42.630;23.382;2023-04-24T08:34:47;94019.69;;;21.43;50.26
12775;BME280;6451;42.630;23.382;2023-04-24T08:37:14;94016.00;;;21.06;51.68
12775;BME280;6451;42.630;23.382;2023-04-24T08:39:41;94017.94;;;21.53;50.96
12775;BME280;6451;42.630;23.382;2023-04-24T08:42:11;94011.84;;;22.01;49.59
12775;BME280;6451;42.630;23.382;2023-04-24T08:44:40;94014.47;;;21.69;49.26
12775;BME280;6451;42.630;23.382;2023-04-24T08:47:08;93998.31;;;21.67;50.78
12775;BME280;6451;42.630;23.382;2023-04-24T08:49:36;94011.25;;;21.30;51.19
12775;BME280;6451;42.630;23.382;2023-04-24T08:52:05;94004.19;;;21.69;50.65
12775;BME280;6451;42.630;23.382;2023-04-24T08:54:33;94005.56;;;21.18;51.63
12775;BME280;6451;42.630;23.382;2023-04-24T08:57:01;93993.56;;;21.87;50.80
12775;BME280;6451;42.630;23.382;2023-04-24T08:59:29;93983.66;;;21.50;49.93
12775;BME280;6451;42.630;23.382;2023-04-24T09:01:56;93996.53;;;21.77;49.13
12775;BME280;6451;42.630;23.382;2023-04-24T09:04:24;93985.84;;;22.35;48.01
12775;BME280;6451;42.630;23.382;2023-04-24T09:06:52;93981.41;;;22.21;48.87
12775;BME280;6451;42.630;23.382;2023-04-24T09:09:23;93977.38;;;22.26;48.28
12775;BME280;6451;42.630;23.382;2023-04-24T09:11:51;93975.84;;;22.57;48.65
12775;BME280;6451;42.630;23.382;2023-04-24T09:14:21;93966.13;;;22.98;47.52
12775;BME280;6451;42.630;23.382;2023-04-24T09:16:49;93966.53;;;23.13;46.66
12775;BME280;6451;42.630;23.382;2023-04-24T09:19:16;93975.84;;;22.57;47.84
12775;BME280;6451;42.630;23.382;2023-04-24T09:21:45;93960.72;;;22.78;46.94
12775;BME280;6451;42.630;23.382;2023-04-24T09:24:15;93951.38;;;22.56;46.41
12775;BME280;6451;42.630;23.382;2023-04-24T09:26:45;93953.38;;;22.88;45.78
12775;BME280;6451;42.630;23.382;2023-04-24T09:29:15;93950.84;;;22.93;45.28
12775;BME280;6451;42.630;23.382;2023-04-24T09:31:42;93954.50;;;23.48;45.69
12775;BME280;6451;42.630;23.382;2023-04-24T09:34:10;93949.44;;;23.59;46.24
12775;BME280;6451;42.630;23.382;2023-04-24T09:36:38;93952.06;;;23.79;46.15
12775;BME280;6451;42.630;23.382;2023-04-24T09:39:08;93938.78;;;24.12;45.38
12775;BME280;6451;42.630;23.382;2023-04-24T09:41:45;93934.66;;;23.79;45.13
12775;BME280;6451;42.630;23.382;2023-04-24T09:44:13;93943.63;;;23.70;45.65
12775;BME280;6451;42.630;23.382;2023-04-24T09:46:41;93942.28;;;23.04;46.30
12775;BME280;6451;42.630;23.382;2023-04-24T09:49:09;93935.91;;;23.49;45.49
12775;BME280;6451;42.630;23.382;2023-04-24T09:51:38;93938.34;;;23.18;46.56
12775;BME280;6451;42.630;23.382;2023-04-24T09:54:13;93931.69;;;23.86;45.63
12775;BME280;6451;42.630;23.382;2023-04-24T09:56:43;93918.16;;;23.88;44.82
12775;BME280;6451;42.630;23.382;2023-04-24T09:59:12;93928.69;;;23.80;45.98
12775;BME280;6451;42.630;23.382;2023-04-24T10:01:39;93922.94;;;24.13;45.55
12775;BME280;6451;42.630;23.382;2023-04-24T10:04:16;93913.59;;;23.81;45.23
12775;BME280;6451;42.630;23.382;2023-04-24T10:06:44;93913.06;;;24.12;45.42
12775;BME280;6451;42.630;23.382;2023-04-24T10:09:11;93918.47;;;24.66;45.11
12775;BME280;6451;42.630;23.382;2023-04-24T10:11:42;93903.13;;;24.40;44.69
12775;BME280;6451;42.630;23.382;2023-04-24T10:14:13;93909.94;;;24.23;44.34
12775;BME280;6451;42.630;23.382;2023-04-24T10:16:40;93897.22;;;24.25;44.25
12775;BME280;6451;42.630;23.382;2023-04-24T10:19:08;93890.19;;;24.72;43.22
12775;BME280;6451;42.630;23.382;2023-04-24T10:21:35;93878.53;;;24.64;42.67
12775;BME280;6451;42.630;23.382;2023-04-24T10:24:04;93877.81;;;24.25;43.84
12775;BME280;6451;42.630;23.382;2023-04-24T10:26:33;93870.59;;;24.28;43.83
12775;BME280;6451;42.630;23.382;2023-04-24T10:29:01;93881.91;;;23.82;42.89
12775;BME280;6451;42.630;23.382;2023-04-24T10:31:32;93888.88;;;24.51;41.83
12775;BME280;6451;42.630;23.382;2023-04-24T10:34:00;93884.56;;;24.24;42.02
12775;BME280;6451;42.630;23.382;2023-04-24T10:36:29;93884.00;;;24.89;41.27
12775;BME280;6451;42.630;23.382;2023-04-24T10:38:59;93874.09;;;25.89;39.16
12775;BME280;6451;42.630;23.382;2023-04-24T10:41:26;93872.69;;;25.62;39.58
12775;BME280;6451;42.630;23.382;2023-04-24T10:44:06;93869.56;;;25.82;39.57
12775;BME280;6451;42.630;23.382;2023-04-24T10:46:35;93868.44;;;25.27;39.07
12775;BME280;6451;42.630;23.382;2023-04-24T10:49:04;93857.31;;;25.70;39.11
12775;BME280;6451;42.630;23.382;2023-04-24T10:51:46;93840.88;;;25.85;38.51
12775;BME280;6451;42.630;23.382;2023-04-24T10:54:27;93866.44;;;25.27;38.49
12775;BME280;6451;42.630;23.382;2023-04-24T10:57:26;93844.28;;;25.36;36.65
12775;BME280;6451;42.630;23.382;2023-04-24T11:00:13;93844.72;;;25.78;37.05
12775;BME280;6451;42.630;23.382;2023-04-24T11:02:42;93832.88;;;25.65;37.84
12775;BME280;6451;42.630;23.382;2023-04-24T11:05:15;93841.69;;;26.44;37.78
12775;BME280;6451;42.630;23.382;2023-04-24T11:08:10;93842.59;;;26.32;37.11
12775;BME280;6451;42.630;23.382;2023-04-24T11:10:43;93837.81;;;25.92;37.00
12775;BME280;6451;42.630;23.382;2023-04-24T11:13:10;93835.69;;;26.05;37.07
12775;BME280;6451;42.630;23.382;2023-04-24T11:15:41;93831.78;;;25.32;36.87
12775;BME280;6451;42.630;23.382;2023-04-24T11:18:14;93827.63;;;25.36;36.84
12775;BME280;6451;42.630;23.382;2023-04-24T11:20:42;93816.88;;;24.82;37.37
12775;BME280;6451;42.630;23.382;2023-04-24T11:23:12;93840.09;;;24.75;37.66
12775;BME280;6451;42.630;23.382;2023-04-24T11:25:39;93810.53;;;25.16;36.64
12775;BME280;6451;42.630;23.382;2023-04-24T11:28:07;93835.44;;;25.29;36.23
12775;BME280;6451;42.630;23.382;2023-04-24T11:30:41;93833.19;;;25.14;36.44
12775;BME280;6451;42.630;23.382;2023-04-24T11:33:08;93838.44;;;24.78;36.95
12775;BME280;6451;42.630;23.382;2023-04-24T11:35:39;93786.94;;;24.42;36.89
12775;BME280;6451;42.630;23.382;2023-04-24T11:38:07;93860.41;;;24.25;38.22
12775;BME280;6451;42.630;23.382;2023-04-24T11:40:34;93863.28;;;23.96;40.33
12775;BME280;6451;42.630;23.382;2023-04-24T11:43:01;93871.16;;;24.35;42.93
12775;BME280;6451;42.630;23.382;2023-04-24T11:45:30;93870.84;;;23.70;44.47
12775;BME280;6451;42.630;23.382;2023-04-24T11:47:58;93875.72;;;24.04;42.68
12775;BME280;6451;42.630;23.382;2023-04-24T11:50:26;93877.72;;;24.03;42.68
12775;BME280;6451;42.630;23.382;2023-04-24T11:52:55;93855.09;;;23.25;44.90
12775;BME280;6451;42.630;23.382;2023-04-24T11:55:23;93882.03;;;23.37;46.12
12775;BME280;6451;42.630;23.382;2023-04-24T11:57:53;93872.59;;;23.76;45.61
12775;BME280;6451;42.630;23.382;2023-04-24T12:00:23;93859.19;;;23.75;43.33
12775;BME280;6451;42.630;23.382;2023-04-24T12:02:50;93865.03;;;24.28;41.55
12775;BME280;6451;42.630;23.382;2023-04-24T12:05:21;93849.41;;;24.21;41.80
12775;BME280;6451;42.630;23.382;2023-04-24T12:07:48;93850.41;;;24.40;42.48
12775;BME280;6451;42.630;23.382;2023-04-24T12:10:19;93859.81;;;24.30;43.20
12775;BME280;6451;42.630;23.382;2023-04-24T12:12:47;93839.88;;;24.22;43.27
12775;BME280;6451;42.630;23.382;2023-04-24T12:15:16;93821.59;;;23.99;44.06
12775;BME280;6451;42.630;23.382;2023-04-24T12:17:43;93828.34;;;24.36;44.92
12775;BME280;6451;42.630;23.382;2023-04-24T12:20:12;93786.03;;;24.45;43.44
12775;BME280;6451;42.630;23.382;2023-04-24T12:22:46;93807.81;;;24.68;43.62
12775;BME280;6451;42.630;23.382;2023-04-24T12:25:14;93830.88;;;24.78;43.86
12775;BME280;6451;42.630;23.382;2023-04-24T12:27:43;93814.22;;;23.71;44.64
12775;BME280;6451;42.630;23.382;2023-04-24T12:30:12;93824.50;;;23.70;45.79
12775;BME280;6451;42.630;23.382;2023-04-24T12:32:46;93806.31;;;23.69;44.81
12775;BME280;6451;42.630;23.382;2023-04-24T12:35:13;93788.94;;;22.72;46.64
12775;BME280;6451;42.630;23.382;2023-04-24T12:37:45;93800.22;;;22.20;48.05
12775;BME280;6451;42.630;23.382;2023-04-24T12:40:13;93799.25;;;22.27;48.27
12775;BME280;6451;42.630;23.382;2023-04-24T12:42:44;93758.19;;;22.70;46.40
12775;BME280;6451;42.630;23.382;2023-04-24T12:45:13;93777.88;;;22.72;46.99
12775;BME280;6451;42.630;23.382;2023-04-24T12:47:42;93771.22;;;22.99;46.13
12775;BME280;6451;42.630;23.382;2023-04-24T12:50:10;93753.91;;;22.53;46.60
12775;BME280;6451;42.630;23.382;2023-04-24T12:52:38;93758.34;;;22.51;45.07
12775;BME280;6451;42.630;23.382;2023-04-24T12:55:06;93772.16;;;23.09;45.02
12775;BME280;6451;42.630;23.382;2023-04-24T12:57:35;93774.94;;;23.59;45.55
12775;BME280;6451;42.630;23.382;2023-04-24T13:00:05;93765.88;;;23.72;46.46
12775;BME280;6451;42.630;23.382;2023-04-24T13:02:32;93741.16;;;23.26;46.83
12775;BME280;6451;42.630;23.382;2023-04-24T13:05:00;93752.94;;;22.89;47.70